Yiyang, China
Current Conditions -  °F | °C
As of 10:00 PM on Sunday 21 Dec 2014 (Local Time) from ZHCC Reporting Station
Clear Clear  
Wind Chill: 30°   Ceiling: Unl
Heat Index: 34°   Visibility: 6mi
Dew Point: -2°   Wind: 4mph
Humidity: 22%   Direction: 230°SW
Pressure: 30.39"   Gusts: NA
Location:  34.5°N, 112.17°E
Report Text: ZHCC 211400Z 23002MPS CAVOK 01/M19 Q1029 NOSIG
Loading
Personal Weather Stations






























Interactive Weather Map New forecast layout! Learn more

10-Day Weather Forecast

Advertisements
Track Severe Weather on mobile